sensor_id;sensor_type;location;lat;lon;timestamp;pressure;altitude;pressure_sealevel;temperature;humidity
76605;BME280;65496;50.978;16.998;2023-02-01T00:00:20;99604.97;;;20.31;40.36
76605;BME280;65496;50.978;16.998;2023-02-01T00:03:06;99575.53;;;20.32;40.44
76605;BME280;65496;50.978;16.998;2023-02-01T00:05:34;99553.19;;;20.33;40.13
76605;BME280;65496;50.978;16.998;2023-02-01T00:08:00;99523.69;;;20.30;40.14
76605;BME280;65496;50.978;16.998;2023-02-01T00:10:26;99552.38;;;20.33;40.51
76605;BME280;65496;50.978;16.998;2023-02-01T00:12:51;99542.13;;;20.30;39.96
76605;BME280;65496;50.978;16.998;2023-02-01T00:15:18;99545.28;;;20.32;39.99
76605;BME280;65496;50.978;16.998;2023-02-01T00:17:43;99544.50;;;20.31;39.89
76605;BME280;65496;50.978;16.998;2023-02-01T00:20:10;99550.00;;;20.31;39.74
76605;BME280;65496;50.978;16.998;2023-02-01T00:22:36;99563.75;;;20.31;39.65
76605;BME280;65496;50.978;16.998;2023-02-01T00:25:02;99562.16;;;20.30;39.72
76605;BME280;65496;50.978;16.998;2023-02-01T00:27:29;99559.41;;;20.30;39.86
76605;BME280;65496;50.978;16.998;2023-02-01T00:29:55;99548.69;;;20.25;39.73
76605;BME280;65496;50.978;16.998;2023-02-01T00:32:21;99560.22;;;20.31;39.88
76605;BME280;65496;50.978;16.998;2023-02-01T00:34:47;99562.97;;;20.31;39.50
76605;BME280;65496;50.978;16.998;2023-02-01T00:37:13;99546.66;;;20.22;39.66
76605;BME280;65496;50.978;16.998;2023-02-01T00:39:39;99562.97;;;20.31;39.76
76605;BME280;65496;50.978;16.998;2023-02-01T00:42:05;99555.50;;;20.31;39.90
76605;BME280;65496;50.978;16.998;2023-02-01T00:44:31;99549.09;;;20.27;39.50
76605;BME280;65496;50.978;16.998;2023-02-01T00:47:00;99550.00;;;20.31;39.59
76605;BME280;65496;50.978;16.998;2023-02-01T00:49:27;99554.34;;;20.32;39.41
76605;BME280;65496;50.978;16.998;2023-02-01T00:51:54;99542.94;;;20.30;39.68
76605;BME280;65496;50.978;16.998;2023-02-01T00:54:20;99527.84;;;20.24;39.65
76605;BME280;65496;50.978;16.998;2023-02-01T00:56:46;99542.53;;;20.32;39.70
76605;BME280;65496;50.978;16.998;2023-02-01T00:59:12;99551.25;;;20.34;39.38
76605;BME280;65496;50.978;16.998;2023-02-01T01:01:38;99545.75;;;20.34;39.46
76605;BME280;65496;50.978;16.998;2023-02-01T01:04:04;99544.94;;;20.33;39.28
76605;BME280;65496;50.978;16.998;2023-02-01T01:06:32;99552.38;;;20.33;39.30
76605;BME280;65496;50.978;16.998;2023-02-01T01:09:02;99550.78;;;20.32;39.12
76605;BME280;65496;50.978;16.998;2023-02-01T01:11:31;99565.34;;;20.32;39.36
76605;BME280;65496;50.978;16.998;2023-02-01T01:13:58;99566.47;;;20.31;39.36
76605;BME280;65496;50.978;16.998;2023-02-01T01:16:26;99571.22;;;20.31;39.32
76605;BME280;65496;50.978;16.998;2023-02-01T01:18:53;99571.56;;;20.29;39.10
76605;BME280;65496;50.978;16.998;2023-02-01T01:21:20;99581.41;;;20.30;39.41
76605;BME280;65496;50.978;16.998;2023-02-01T01:23:46;99581.75;;;20.29;39.08
76605;BME280;65496;50.978;16.998;2023-02-01T01:26:21;99586.91;;;20.30;39.33
76605;BME280;65496;50.978;16.998;2023-02-01T01:28:48;99587.59;;;20.27;39.33
76605;BME280;65496;50.978;16.998;2023-02-01T01:31:16;99591.59;;;20.30;39.19
76605;BME280;65496;50.978;16.998;2023-02-01T01:33:43;99582.56;;;20.29;39.29
76605;BME280;65496;50.978;16.998;2023-02-01T01:36:10;99584.50;;;20.29;39.03
76605;BME280;65496;50.978;16.998;2023-02-01T01:38:38;99578.22;;;20.28;39.11
76605;BME280;65496;50.978;16.998;2023-02-01T01:41:04;99590.81;;;20.29;39.26
76605;BME280;65496;50.978;16.998;2023-02-01T01:44:01;99573.50;;;20.29;39.29
76605;BME280;65496;50.978;16.998;2023-02-01T01:46:32;99612.00;;;20.29;38.92
76605;BME280;65496;50.978;16.998;2023-02-01T01:49:04;99598.25;;;20.29;38.88
76605;BME280;65496;50.978;16.998;2023-02-01T01:51:33;99601.00;;;20.29;38.96
76605;BME280;65496;50.978;16.998;2023-02-01T01:54:40;99601.72;;;20.26;38.95
76605;BME280;65496;50.978;16.998;2023-02-01T01:57:05;99582.41;;;20.22;39.15
76605;BME280;65496;50.978;16.998;2023-02-01T01:59:34;99602.97;;;20.28;38.91
76605;BME280;65496;50.978;16.998;2023-02-01T02:02:01;99612.00;;;20.29;39.01
76605;BME280;65496;50.978;16.998;2023-02-01T02:04:27;99613.59;;;20.30;39.24
76605;BME280;65496;50.978;16.998;2023-02-01T02:07:04;99593.22;;;20.31;39.19
76605;BME280;65496;50.978;16.998;2023-02-01T02:09:31;99582.97;;;20.31;39.03
76605;BME280;65496;50.978;16.998;2023-02-01T02:11:57;99593.97;;;20.31;38.67
76605;BME280;65496;50.978;16.998;2023-02-01T02:14:24;99586.91;;;20.30;39.14
76605;BME280;65496;50.978;16.998;2023-02-01T02:40:31;99579.47;;;20.31;38.87
76605;BME280;65496;50.978;16.998;2023-02-01T02:43:21;99583.78;;;20.32;38.91
76605;BME280;65496;50.978;16.998;2023-02-01T02:46:21;99571.97;;;20.31;38.51
76605;BME280;65496;50.978;16.998;2023-02-01T02:49:15;99569.69;;;20.33;38.69
76605;BME280;65496;50.978;16.998;2023-02-01T02:51:58;99577.13;;;20.33;38.70
76605;BME280;65496;50.978;16.998;2023-02-01T02:54:47;99562.53;;;20.29;38.74
76605;BME280;65496;50.978;16.998;2023-02-01T02:57:24;99572.44;;;20.33;38.44
76605;BME280;65496;50.978;16.998;2023-02-01T03:00:14;99577.13;;;20.33;38.50
76605;BME280;65496;50.978;16.998;2023-02-01T03:03:00;99571.63;;;20.33;38.21
76605;BME280;65496;50.978;16.998;2023-02-01T03:05:46;99582.63;;;20.33;38.55
76605;BME280;65496;50.978;16.998;2023-02-01T03:17:02;99575.97;;;20.34;38.42
76605;BME280;65496;50.978;16.998;2023-02-01T03:19:33;99582.63;;;20.33;38.28
76605;BME280;65496;50.978;16.998;2023-02-01T03:22:07;99576.78;;;20.34;37.99
76605;BME280;65496;50.978;16.998;2023-02-01T03:24:44;99566.94;;;20.33;38.02
76605;BME280;65496;50.978;16.998;2023-02-01T03:27:18;99570.47;;;20.34;38.14
76605;BME280;65496;50.978;16.998;2023-02-01T03:29:50;99567.72;;;20.34;38.15
76605;BME280;65496;50.978;16.998;2023-02-01T03:32:18;99577.47;;;20.31;38.29
76605;BME280;65496;50.978;16.998;2023-02-01T03:34:44;99575.97;;;20.34;38.00
76605;BME280;65496;50.978;16.998;2023-02-01T03:37:13;99568.81;;;20.29;38.09
76605;BME280;65496;50.978;16.998;2023-02-01T03:39:48;99571.28;;;20.34;37.90
76605;BME280;65496;50.978;16.998;2023-02-01T03:45:06;99579.53;;;20.34;38.09
76605;BME280;65496;50.978;16.998;2023-02-01T03:47:40;99574.03;;;20.34;38.43
76605;BME280;65496;50.978;16.998;2023-02-01T03:50:10;99582.28;;;20.34;38.03
76605;BME280;65496;50.978;16.998;2023-02-01T03:53:20;99571.28;;;20.34;37.94
76605;BME280;65496;50.978;16.998;2023-02-01T03:55:27;99560.63;;;20.33;38.05
76605;BME280;65496;50.978;16.998;2023-02-01T03:58:12;99558.34;;;20.35;37.90
76605;BME280;65496;50.978;16.998;2023-02-01T04:00:39;99561.44;;;20.33;37.95
76605;BME280;65496;50.978;16.998;2023-02-01T04:03:06;99566.59;;;20.35;38.05
76605;BME280;65496;50.978;16.998;2023-02-01T04:05:33;99557.53;;;20.34;37.93
76605;BME280;65496;50.978;16.998;2023-02-01T04:07:59;99554.78;;;20.34;37.93
76605;BME280;65496;50.978;16.998;2023-02-01T04:10:25;99563.03;;;20.34;37.99
76605;BME280;65496;50.978;16.998;2023-02-01T04:12:52;99553.19;;;20.33;37.48
76605;BME280;65496;50.978;16.998;2023-02-01T04:15:17;99558.69;;;20.33;37.93
76605;BME280;65496;50.978;16.998;2023-02-01T04:17:44;99554.00;;;20.34;37.83
76605;BME280;65496;50.978;16.998;2023-02-01T04:20:10;99550.44;;;20.33;37.81
76605;BME280;65496;50.978;16.998;2023-02-01T04:22:37;99546.53;;;20.34;37.61
76605;BME280;65496;50.978;16.998;2023-02-01T04:25:03;99539.44;;;20.33;37.99
76605;BME280;65496;50.978;16.998;2023-02-01T04:27:31;99548.50;;;20.34;37.97
76605;BME280;65496;50.978;16.998;2023-02-01T04:29:57;99546.09;;;20.32;37.63
76605;BME280;65496;50.978;16.998;2023-02-01T04:32:23;99554.34;;;20.32;37.82
76605;BME280;65496;50.978;16.998;2023-02-01T04:34:49;99550.44;;;20.33;37.77
76605;BME280;65496;50.978;16.998;2023-02-01T04:37:15;99553.53;;;20.32;37.75
76605;BME280;65496;50.978;16.998;2023-02-01T04:39:41;99550.78;;;20.32;37.80
76605;BME280;65496;50.978;16.998;2023-02-01T04:42:07;99546.47;;;20.31;37.43
76605;BME280;65496;50.978;16.998;2023-02-01T04:44:34;99541.75;;;20.31;37.43
76605;BME280;65496;50.978;16.998;2023-02-01T04:47:02;99530.34;;;20.29;37.40
76605;BME280;65496;50.978;16.998;2023-02-01T04:49:28;99527.66;;;20.33;37.56
76605;BME280;65496;50.978;16.998;2023-02-01T04:51:54;99537.50;;;20.34;37.50
76605;BME280;65496;50.978;16.998;2023-02-01T04:54:20;99526.84;;;20.32;37.82
76605;BME280;65496;50.978;16.998;2023-02-01T04:56:46;99531.19;;;20.33;37.61
76605;BME280;65496;50.978;16.998;2023-02-01T04:59:12;99539.44;;;20.33;37.61
76605;BME280;65496;50.978;16.998;2023-02-01T05:01:38;99527.59;;;20.29;37.73
76605;BME280;65496;50.978;16.998;2023-02-01T05:04:04;99533.94;;;20.33;37.81
76605;BME280;65496;50.978;16.998;2023-02-01T05:06:30;99535.91;;;20.33;37.53
76605;BME280;65496;50.978;16.998;2023-02-01T05:08:56;99529.59;;;20.32;37.51
76605;BME280;65496;50.978;16.998;2023-02-01T05:11:22;99520.56;;;20.32;37.35
76605;BME280;65496;50.978;16.998;2023-02-01T05:14:06;99524.09;;;20.32;37.46
76605;BME280;65496;50.978;16.998;2023-02-01T05:16:33;99532.34;;;20.32;37.39
76605;BME280;65496;50.978;16.998;2023-02-01T05:18:58;99522.09;;;20.29;37.30
76605;BME280;65496;50.978;16.998;2023-02-01T05:21:25;99517.00;;;20.31;37.43
76605;BME280;65496;50.978;16.998;2023-02-01T05:23:51;99517.81;;;20.32;37.37
76605;BME280;65496;50.978;16.998;2023-02-01T05:26:36;99518.59;;;20.32;37.68
76605;BME280;65496;50.978;16.998;2023-02-01T05:29:04;99504.84;;;20.32;37.23
76605;BME280;65496;50.978;16.998;2023-02-01T05:31:30;99507.19;;;20.30;37.36
76605;BME280;65496;50.978;16.998;2023-02-01T05:33:56;99514.25;;;20.31;37.52
76605;BME280;65496;50.978;16.998;2023-02-01T05:36:23;99515.78;;;20.29;37.07
76605;BME280;65496;50.978;16.998;2023-02-01T05:38:49;99510.28;;;20.29;37.30
76605;BME280;65496;50.978;16.998;2023-02-01T05:41:15;99520.19;;;20.33;37.37
76605;BME280;65496;50.978;16.998;2023-02-01T05:43:41;99514.69;;;20.33;37.41
76605;BME280;65496;50.978;16.998;2023-02-01T05:46:07;99517.88;;;20.35;37.48
76605;BME280;65496;50.978;16.998;2023-02-01T05:48:36;99505.66;;;20.33;37.48
76605;BME280;65496;50.978;16.998;2023-02-01T05:51:02;99509.25;;;20.37;37.69
76605;BME280;65496;50.978;16.998;2023-02-01T05:53:28;99510.47;;;20.39;37.54
76605;BME280;65496;50.978;16.998;2023-02-01T05:55:54;99503.81;;;20.40;37.74
76605;BME280;65496;50.978;16.998;2023-02-01T05:58:20;99503.03;;;20.40;37.46
76605;BME280;65496;50.978;16.998;2023-02-01T06:00:46;99505.41;;;20.41;37.52
76605;BME280;65496;50.978;16.998;2023-02-01T06:03:12;99490.88;;;20.41;37.54
76605;BME280;65496;50.978;16.998;2023-02-01T06:05:38;99494.44;;;20.41;37.73
76605;BME280;65496;50.978;16.998;2023-02-01T06:08:04;99494.44;;;20.41;37.62
76605;BME280;65496;50.978;16.998;2023-02-01T06:10:33;99486.19;;;20.41;37.22
76605;BME280;65496;50.978;16.998;2023-02-01T06:12:59;99489.72;;;20.42;37.33
76605;BME280;65496;50.978;16.998;2023-02-01T06:15:25;99487.31;;;20.40;37.51
76605;BME280;65496;50.978;16.998;2023-02-01T06:17:51;99490.53;;;20.42;37.53
76605;BME280;65496;50.978;16.998;2023-02-01T06:20:17;99492.47;;;20.42;37.44
76605;BME280;65496;50.978;16.998;2023-02-01T06:22:43;99500.72;;;20.42;37.57
76605;BME280;65496;50.978;16.998;2023-02-01T06:25:10;99493.63;;;20.41;37.50
76605;BME280;65496;50.978;16.998;2023-02-01T06:27:36;99492.03;;;20.40;37.82
76605;BME280;65496;50.978;16.998;2023-02-01T06:30:04;99495.22;;;20.42;37.28
76605;BME280;65496;50.978;16.998;2023-02-01T06:32:30;99488.13;;;20.41;37.31
76605;BME280;65496;50.978;16.998;2023-02-01T06:34:56;99492.03;;;20.40;37.60
76605;BME280;65496;50.978;16.998;2023-02-01T06:37:23;99488.94;;;20.41;37.22
76605;BME280;65496;50.978;16.998;2023-02-01T06:39:56;99490.94;;;20.44;37.04
76605;BME280;65496;50.978;16.998;2023-02-01T06:42:21;99475.25;;;20.45;37.06
76605;BME280;65496;50.978;16.998;2023-02-01T06:44:48;99491.38;;;20.47;36.72
76605;BME280;65496;50.978;16.998;2023-02-01T06:47:14;99498.09;;;20.49;36.85
76605;BME280;65496;50.978;16.998;2023-02-01T06:49:40;99483.84;;;20.43;36.80
76605;BME280;65496;50.978;16.998;2023-02-01T06:52:06;99483.97;;;20.51;36.65
76605;BME280;65496;50.978;16.998;2023-02-01T06:54:32;99486.34;;;20.52;36.30
76605;BME280;65496;50.978;16.998;2023-02-01T06:56:59;99492.28;;;20.54;36.35
76605;BME280;65496;50.978;16.998;2023-02-01T06:59:25;99471.41;;;20.50;37.29
76605;BME280;65496;50.978;16.998;2023-02-01T07:01:51;99480.06;;;20.52;37.72
76605;BME280;65496;50.978;16.998;2023-02-01T07:04:18;99470.94;;;20.48;37.92
76605;BME280;65496;50.978;16.998;2023-02-01T07:06:43;99485.56;;;20.52;38.44
76605;BME280;65496;50.978;16.998;2023-02-01T07:09:10;99489.41;;;20.47;38.94
76605;BME280;65496;50.978;16.998;2023-02-01T07:11:37;99483.84;;;20.43;39.72
76605;BME280;65496;50.978;16.998;2023-02-01T07:14:06;99490.44;;;20.39;39.88
76605;BME280;65496;50.978;16.998;2023-02-01T07:16:32;99486.47;;;20.36;40.32
76605;BME280;65496;50.978;16.998;2023-02-01T07:18:58;99482.50;;;20.34;40.44
76605;BME280;65496;50.978;16.998;2023-02-01T07:21:25;99496.25;;;20.34;39.73
76605;BME280;65496;50.978;16.998;2023-02-01T07:23:54;99502.63;;;20.38;39.32
76605;BME280;65496;50.978;16.998;2023-02-01T07:26:20;99509.31;;;20.40;38.86
76605;BME280;65496;50.978;16.998;2023-02-01T07:28:46;99500.28;;;20.40;38.66
76605;BME280;65496;50.978;16.998;2023-02-01T07:31:15;99502.28;;;20.43;38.12
76605;BME280;65496;50.978;16.998;2023-02-01T07:33:41;99491.75;;;20.45;38.34
76605;BME280;65496;50.978;16.998;2023-02-01T07:36:14;99504.69;;;20.44;38.00
76605;BME280;65496;50.978;16.998;2023-02-01T07:38:41;99507.88;;;20.47;37.89
76605;BME280;65496;50.978;16.998;2023-02-01T07:41:07;99502.38;;;20.47;37.56
76605;BME280;65496;50.978;16.998;2023-02-01T07:43:34;99492.16;;;20.47;37.25
76605;BME280;65496;50.978;16.998;2023-02-01T07:46:01;99502.06;;;20.52;36.87
76605;BME280;65496;50.978;16.998;2023-02-01T07:48:28;99496.19;;;20.53;36.85
76605;BME280;65496;50.978;16.998;2023-02-01T07:51:14;99503.31;;;20.54;36.56
76605;BME280;65496;50.978;16.998;2023-02-01T07:53:41;99500.97;;;20.56;36.47
76605;BME280;65496;50.978;16.998;2023-02-01T07:56:16;99493.16;;;20.58;36.37
76605;BME280;65496;50.978;16.998;2023-02-01T07:58:46;99491.16;;;20.59;36.21
76605;BME280;65496;50.978;16.998;2023-02-01T08:01:23;99490.81;;;20.60;36.15
76605;BME280;65496;50.978;16.998;2023-02-01T08:03:52;99489.66;;;20.61;35.77
76605;BME280;65496;50.978;16.998;2023-02-01T08:06:19;99494.78;;;20.63;35.80
76605;BME280;65496;50.978;16.998;2023-02-01T08:08:47;99495.22;;;20.65;35.90
76605;BME280;65496;50.978;16.998;2023-02-01T08:11:13;99488.56;;;20.66;35.78
76605;BME280;65496;50.978;16.998;2023-02-01T08:13:40;99486.59;;;20.66;35.71
76605;BME280;65496;50.978;16.998;2023-02-01T08:16:07;99486.22;;;20.68;35.53
76605;BME280;65496;50.978;16.998;2023-02-01T08:18:35;99480.38;;;20.69;35.83
76605;BME280;65496;50.978;16.998;2023-02-01T08:21:09;99477.63;;;20.69;35.78
76605;BME280;65496;50.978;16.998;2023-02-01T08:23:36;99475.28;;;20.71;35.15
76605;BME280;65496;50.978;16.998;2023-02-01T08:26:15;99472.16;;;20.73;35.45
76605;BME280;65496;50.978;16.998;2023-02-01T08:28:44;99480.03;;;20.74;35.46
76605;BME280;65496;50.978;16.998;2023-02-01T08:31:13;99474.19;;;20.76;35.32
76605;BME280;65496;50.978;16.998;2023-02-01T08:33:44;99462.03;;;20.77;35.33
76605;BME280;65496;50.978;16.998;2023-02-01T08:36:13;99467.53;;;20.77;35.29
76605;BME280;65496;50.978;16.998;2023-02-01T08:38:39;99464.81;;;20.80;35.13
76605;BME280;65496;50.978;16.998;2023-02-01T08:41:10;99464.44;;;20.82;35.12
76605;BME280;65496;50.978;16.998;2023-02-01T08:43:38;99461.34;;;20.83;35.06
76605;BME280;65496;50.978;16.998;2023-02-01T08:46:04;99467.25;;;20.85;35.07
76605;BME280;65496;50.978;16.998;2023-02-01T08:48:31;99460.97;;;20.85;34.98
76605;BME280;65496;50.978;16.998;2023-02-01T08:50:57;99459.38;;;20.84;35.00
76605;BME280;65496;50.978;16.998;2023-02-01T08:53:26;99464.94;;;20.87;34.91
76605;BME280;65496;50.978;16.998;2023-02-01T08:55:52;99475.56;;;20.89;35.03
76605;BME280;65496;50.978;16.998;2023-02-01T08:58:18;99477.94;;;20.90;34.92
76605;BME280;65496;50.978;16.998;2023-02-01T09:00:45;99467.72;;;20.91;34.82
76605;BME280;65496;50.978;16.998;2023-02-01T09:03:11;99474.84;;;20.92;35.00
76605;BME280;65496;50.978;16.998;2023-02-01T09:05:38;99472.50;;;20.94;34.75
76605;BME280;65496;50.978;16.998;2023-02-01T09:08:04;99473.28;;;20.95;34.80
76605;BME280;65496;50.978;16.998;2023-02-01T09:10:31;99477.63;;;20.96;34.77
76605;BME280;65496;50.978;16.998;2023-02-01T09:12:57;99465.03;;;20.95;34.68
76605;BME280;65496;50.978;16.998;2023-02-01T09:15:23;99467.44;;;20.96;34.82
76605;BME280;65496;50.978;16.998;2023-02-01T09:17:49;99473.72;;;20.97;34.89
76605;BME280;65496;50.978;16.998;2023-02-01T09:20:15;99456.03;;;20.98;34.94
76605;BME280;65496;50.978;16.998;2023-02-01T09:22:42;99463.50;;;20.97;34.78
76605;BME280;65496;50.978;16.998;2023-02-01T09:25:08;99447.78;;;20.98;34.86
76605;BME280;65496;50.978;16.998;2023-02-01T09:27:35;99445.47;;;21.00;34.71
76605;BME280;65496;50.978;16.998;2023-02-01T09:30:02;99460.03;;;21.00;34.86
76605;BME280;65496;50.978;16.998;2023-02-01T09:32:28;99444.66;;;20.99;35.02
76605;BME280;65496;50.978;16.998;2023-02-01T09:34:54;99456.88;;;21.02;34.91
76605;BME280;65496;50.978;16.998;2023-02-01T09:37:20;99448.63;;;21.02;35.07
76605;BME280;65496;50.978;16.998;2023-02-01T09:39:46;99442.31;;;21.01;34.89
76605;BME280;65496;50.978;16.998;2023-02-01T09:42:28;99448.25;;;21.03;34.92
76605;BME280;65496;50.978;16.998;2023-02-01T09:47:50;99444.34;;;21.04;34.95
76605;BME280;65496;50.978;16.998;2023-02-01T09:50:19;99440.41;;;21.05;34.83
76605;BME280;65496;50.978;16.998;2023-02-01T09:53:00;99439.25;;;21.06;34.92
76605;BME280;65496;50.978;16.998;2023-02-01T09:55:32;99425.50;;;21.06;34.86
76605;BME280;65496;50.978;16.998;2023-02-01T09:58:06;99438.09;;;21.07;34.84
76605;BME280;65496;50.978;16.998;2023-02-01T10:00:38;99432.22;;;21.09;34.92
76605;BME280;65496;50.978;16.998;2023-02-01T10:03:05;99431.84;;;21.10;34.93
76605;BME280;65496;50.978;16.998;2023-02-01T10:06:16;99425.63;;;21.13;34.81
76605;BME280;65496;50.978;16.998;2023-02-01T10:14:51;99425.66;;;21.17;34.69
76605;BME280;65496;50.978;16.998;2023-02-01T10:17:52;99399.94;;;21.06;34.82
76605;BME280;65496;50.978;16.998;2023-02-01T10:28:39;99403.66;;;21.17;34.77
76605;BME280;65496;50.978;16.998;2023-02-01T10:31:08;99408.03;;;21.21;34.83
76605;BME280;65496;50.978;16.998;2023-02-01T10:33:42;99412.78;;;21.24;34.61
76605;BME280;65496;50.978;16.998;2023-02-01T10:36:21;99395.09;;;21.25;34.75
76605;BME280;65496;50.978;16.998;2023-02-01T10:38:47;99398.66;;;21.26;34.70
76605;BME280;65496;50.978;16.998;2023-02-01T10:41:20;99388.84;;;21.28;34.62
76605;BME280;65496;50.978;16.998;2023-02-01T10:43:53;99386.53;;;21.30;34.73
76605;BME280;65496;50.978;16.998;2023-02-01T10:46:22;99385.78;;;21.33;34.67
76605;BME280;65496;50.978;16.998;2023-02-01T10:48:49;99391.69;;;21.35;34.57
76605;BME280;65496;50.978;16.998;2023-02-01T10:51:26;99381.81;;;21.31;34.56
76605;BME280;65496;50.978;16.998;2023-02-01T10:53:55;99385.81;;;21.37;34.71
76605;BME280;65496;50.978;16.998;2023-02-01T10:56:26;99387.41;;;21.38;34.68
76605;BME280;65496;50.978;16.998;2023-02-01T10:59:06;99389.00;;;21.39;34.63
76605;BME280;65496;50.978;16.998;2023-02-01T11:01:41;99374.03;;;21.40;34.72
76605;BME280;65496;50.978;16.998;2023-02-01T11:04:13;99371.28;;;21.40;34.67
76605;BME280;65496;50.978;16.998;2023-02-01T11:06:41;99378.75;;;21.39;34.73
76605;BME280;65496;50.978;16.998;2023-02-01T11:09:10;99373.25;;;21.39;34.66
76605;BME280;65496;50.978;16.998;2023-02-01T11:12:00;99364.22;;;21.39;34.54
76605;BME280;65496;50.978;16.998;2023-02-01T11:14:39;99361.81;;;21.37;34.68
76605;BME280;65496;50.978;16.998;2023-02-01T11:19:56;99350.38;;;21.35;34.56
76605;BME280;65496;50.978;16.998;2023-02-01T11:22:25;99350.78;;;21.34;34.67
76605;BME280;65496;50.978;16.998;2023-02-01T11:24:52;99351.94;;;21.33;34.68
76605;BME280;65496;50.978;16.998;2023-02-01T11:27:20;99355.09;;;21.31;34.71
76605;BME280;65496;50.978;16.998;2023-02-01T11:29:50;99346.03;;;21.31;34.70
76605;BME280;65496;50.978;16.998;2023-02-01T11:32:19;99349.16;;;21.29;34.55
76605;BME280;65496;50.978;16.998;2023-02-01T11:34:56;99342.03;;;21.28;34.70
76605;BME280;65496;50.978;16.998;2023-02-01T11:37:26;99336.13;;;21.26;34.83
76605;BME280;65496;50.978;16.998;2023-02-01T11:39:56;99335.34;;;21.26;34.83
76605;BME280;65496;50.978;16.998;2023-02-01T11:42:23;99324.28;;;21.22;34.69
76605;BME280;65496;50.978;16.998;2023-02-01T11:44:50;99335.31;;;21.22;34.77
76605;BME280;65496;50.978;16.998;2023-02-01T11:47:27;99317.50;;;21.16;34.61
76605;BME280;65496;50.978;16.998;2023-02-01T11:50:00;99323.50;;;21.22;34.77
76605;BME280;65496;50.978;16.998;2023-02-01T11:58:04;99318.75;;;21.19;34.69
76605;BME280;65496;50.978;16.998;2023-02-01T12:00:39;99321.50;;;21.19;34.84
76605;BME280;65496;50.978;16.998;2023-02-01T12:03:19;99320.69;;;21.18;34.83
76605;BME280;65496;50.978;16.998;2023-02-01T12:06:40;99319.09;;;21.17;34.71
76605;BME280;65496;50.978;16.998;2023-02-01T12:09:12;99311.63;;;21.18;34.40
76605;BME280;65496;50.978;16.998;2023-02-01T12:11:43;99312.44;;;21.18;34.86
76605;BME280;65496;50.978;16.998;2023-02-01T12:38:39;99324.63;;;21.17;34.79
76605;BME280;65496;50.978;16.998;2023-02-01T12:42:09;99309.25;;;21.16;34.93
76605;BME280;65496;50.978;16.998;2023-02-01T12:44:55;99319.06;;;21.14;34.84
76605;BME280;65496;50.978;16.998;2023-02-01T12:47:32;99328.91;;;21.15;34.78
76605;BME280;65496;50.978;16.998;2023-02-01T12:50:14;99326.97;;;21.15;34.88
76605;BME280;65496;50.978;16.998;2023-02-01T12:52:50;99321.03;;;21.13;35.06
76605;BME280;65496;50.978;16.998;2023-02-01T12:55:27;99322.22;;;21.12;34.65
76605;BME280;65496;50.978;16.998;2023-02-01T12:58:07;99324.97;;;21.12;34.88
76605;BME280;65496;50.978;16.998;2023-02-01T13:00:52;99327.72;;;21.12;34.83
76605;BME280;65496;50.978;16.998;2023-02-01T13:05:55;99339.41;;;21.09;34.76
76605;BME280;65496;50.978;16.998;2023-02-01T13:09:17;99348.16;;;21.11;34.83
76605;BME280;65496;50.978;16.998;2023-02-01T13:11:29;99344.56;;;21.11;34.92
76605;BME280;65496;50.978;16.998;2023-02-01T13:16:51;99341.47;;;21.12;34.91
76605;BME280;65496;50.978;16.998;2023-02-01T13:21:51;99344.22;;;21.12;34.76
76605;BME280;65496;50.978;16.998;2023-02-01T13:24:37;99351.69;;;21.12;34.93
76605;BME280;65496;50.978;16.998;2023-02-01T13:27:04;99348.94;;;21.12;34.92
76605;BME280;65496;50.978;16.998;2023-02-01T13:29:32;99337.47;;;21.10;35.13
76605;BME280;65496;50.978;16.998;2023-02-01T13:43:43;99344.72;;;21.21;34.77
76605;BME280;65496;50.978;16.998;2023-02-01T13:46:11;99347.09;;;21.23;34.89
76605;BME280;65496;50.978;16.998;2023-02-01T13:49:04;99337.25;;;21.22;34.59
76605;BME280;65496;50.978;16.998;2023-02-01T13:53:59;99332.09;;;21.20;34.70
76605;BME280;65496;50.978;16.998;2023-02-01T13:56:26;99344.34;;;21.23;34.83
76605;BME280;65496;50.978;16.998;2023-02-01T13:58:52;99348.31;;;21.25;34.92
76605;BME280;65496;50.978;16.998;2023-02-01T14:19:29;99350.34;;;21.32;35.44
76605;BME280;65496;50.978;16.998;2023-02-01T14:22:00;99351.19;;;21.36;35.50
76605;BME280;65496;50.978;16.998;2023-02-01T14:24:50;99350.44;;;21.39;35.40
76605;BME280;65496;50.978;16.998;2023-02-01T14:27:28;99356.00;;;21.43;35.36
76605;BME280;65496;50.978;16.998;2023-02-01T14:30:00;99343.38;;;21.42;35.11
76605;BME280;65496;50.978;16.998;2023-02-01T14:32:32;99332.44;;;21.49;35.20
76605;BME280;65496;50.978;16.998;2023-02-01T14:35:01;99342.69;;;21.52;34.78
76605;BME280;65496;50.978;16.998;2023-02-01T14:37:33;99347.03;;;21.53;35.08
76605;BME280;65496;50.978;16.998;2023-02-01T14:55:48;99351.34;;;21.50;35.04
76605;BME280;65496;50.978;16.998;2023-02-01T15:00:56;99361.16;;;21.48;34.92
76605;BME280;65496;50.978;16.998;2023-02-01T15:05:58;99365.47;;;21.45;34.98
76605;BME280;65496;50.978;16.998;2023-02-01T15:08:31;99366.25;;;21.46;34.96
76605;BME280;65496;50.978;16.998;2023-02-01T15:11:01;99363.81;;;21.41;35.13
76605;BME280;65496;50.978;16.998;2023-02-01T15:13:29;99377.22;;;21.42;35.30
76605;BME280;65496;50.978;16.998;2023-02-01T15:16:12;99383.53;;;21.43;34.90
76605;BME280;65496;50.978;16.998;2023-02-01T15:18:40;99379.19;;;21.42;34.93
76605;BME280;65496;50.978;16.998;2023-02-01T15:21:21;99384.25;;;21.39;34.99
76605;BME280;65496;50.978;16.998;2023-02-01T15:23:47;99381.91;;;21.38;34.94
76605;BME280;65496;50.978;16.998;2023-02-01T15:26:28;99374.00;;;21.36;35.02
76605;BME280;65496;50.978;16.998;2023-02-01T15:28:57;99375.16;;;21.35;35.02
76605;BME280;65496;50.978;16.998;2023-02-01T15:31:41;99376.34;;;21.34;35.03
76605;BME280;65496;50.978;16.998;2023-02-01T15:34:08;99387.72;;;21.33;35.31